Time;durP1;ratioP1;P1;durP2;ratioP2;P2;SDS_P1;SDS_P2;PMS_P1;PMS_P2;Temp;Humidity;BMP_temperature;BMP_pressure;BME280_temperature;BME280_humidity;BME280_pressure;Samples;Min_cycle;Max_cycle;Signal;HPM_P1;HPM_P2
2021/10/18 00:00:08;;;;;;;7.10;6.50;;;;;;;;;;5104747;28;24401;-60
2021/10/18 00:02:33;;;;;;;7.15;6.45;;;;;;;;;;5085150;28;24826;-60
2021/10/18 00:04:58;;;;;;;7.45;6.75;;;;;;;;;;5083649;28;24424;-60
2021/10/18 00:07:23;;;;;;;7.10;6.50;;;;;;;;;;5081801;28;24417;-60
2021/10/18 00:09:48;;;;;;;7.00;6.40;;;;;;;;;;5081462;28;24402;-60
2021/10/18 00:12:14;;;;;;;7.23;6.50;;;;;;;;;;5081508;28;24406;-60
2021/10/18 00:14:39;;;;;;;6.47;5.97;;;;;;;;;;5083188;28;24880;-60
2021/10/18 00:17:04;;;;;;;7.00;6.40;;;;;;;;;;5083123;28;24441;-60
2021/10/18 00:19:29;;;;;;;7.47;6.80;;;;;;;;;;5084912;28;24400;-60
2021/10/18 00:21:54;;;;;;;7.00;6.40;;;;;;;;;;5085009;28;24405;-60
2021/10/18 00:24:19;;;;;;;7.15;6.55;;;;;;;;;;5079519;28;24398;-60
2021/10/18 00:26:45;;;;;;;7.15;6.55;;;;;;;;;;5081190;28;24437;-60
2021/10/18 00:29:10;;;;;;;7.00;6.40;;;;;;;;;;5082846;28;24447;-60
2021/10/18 00:31:35;;;;;;;7.88;7.18;;;;;;;;;;5084737;28;24974;-60
2021/10/18 00:34:00;;;;;;;7.03;6.32;;;;;;;;;;5082886;28;24399;-60
2021/10/18 00:36:25;;;;;;;8.00;7.20;;;;;;;;;;5080971;28;24519;-60
2021/10/18 00:38:50;;;;;;;7.88;7.18;;;;;;;;;;5080946;28;24397;-60
2021/10/18 00:41:17;;;;;;;8.00;7.30;;;;;;;;;;5081008;28;24391;-60
2021/10/18 00:43:46;;;;;;;8.20;7.50;;;;;;;;;;5082424;28;24439;-59
2021/10/18 00:46:11;;;;;;;8.10;7.32;;;;;;;;;;5082429;28;24756;-60
2021/10/18 00:48:36;;;;;;;7.50;6.90;;;;;;;;;;5083907;28;24494;-60
2021/10/18 00:51:02;;;;;;;7.90;7.20;;;;;;;;;;5080763;28;24963;-60
2021/10/18 00:53:27;;;;;;;7.43;6.83;;;;;;;;;;5078947;28;24438;-60
2021/10/18 00:55:54;;;;;;;7.20;6.60;;;;;;;;;;5080394;28;24505;-60
2021/10/18 00:58:19;;;;;;;7.88;7.18;;;;;;;;;;5080502;28;24465;-60
2021/10/18 01:00:45;;;;;;;8.05;7.35;;;;;;;;;;5090023;28;24510;-60
2021/10/18 01:03:10;;;;;;;7.60;6.90;;;;;;;;;;5102723;28;24454;-60
2021/10/18 01:05:36;;;;;;;7.57;6.97;;;;;;;;;;5099275;28;24419;-60
2021/10/18 01:08:02;;;;;;;8.98;8.18;;;;;;;;;;5098928;28;24986;-60
2021/10/18 01:10:27;;;;;;;8.70;8.00;;;;;;;;;;5102782;28;24481;-60
2021/10/18 01:12:52;;;;;;;8.90;8.00;;;;;;;;;;5104264;27;24397;-60
2021/10/18 01:15:17;;;;;;;8.63;7.82;;;;;;;;;;5102452;28;24506;-60
2021/10/18 01:17:42;;;;;;;8.70;7.90;;;;;;;;;;5104356;28;24382;-60
2021/10/18 01:20:13;;;;;;;8.75;7.85;;;;;;;;;;5098600;28;24755;-60
2021/10/18 01:22:38;;;;;;;8.50;7.70;;;;;;;;;;5098837;28;24482;-60
2021/10/18 01:25:03;;;;;;;8.27;7.50;;;;;;;;;;5102755;28;24516;-60
2021/10/18 01:27:29;;;;;;;8.20;7.40;;;;;;;;;;5104040;28;24385;-60
2021/10/18 01:29:54;;;;;;;8.05;7.25;;;;;;;;;;5103541;28;24512;-60
2021/10/18 01:32:19;;;;;;;7.90;7.20;;;;;;;;;;5101175;28;24436;-60
2021/10/18 01:34:44;;;;;;;8.57;7.77;;;;;;;;;;5100291;28;24439;-60
2021/10/18 01:37:09;;;;;;;8.30;7.50;;;;;;;;;;5098538;28;24422;-60
2021/10/18 01:39:34;;;;;;;8.40;7.70;;;;;;;;;;5102532;28;24398;-60
2021/10/18 01:42:00;;;;;;;7.40;6.70;;;;;;;;;;5102369;28;24386;-60
2021/10/18 01:44:25;;;;;;;8.90;8.00;;;;;;;;;;5104015;28;24970;-61
2021/10/18 01:46:50;;;;;;;7.47;6.87;;;;;;;;;;5104312;28;24808;-60
2021/10/18 01:49:15;;;;;;;7.75;7.05;;;;;;;;;;5098609;28;24409;-60
2021/10/18 01:51:40;;;;;;;7.30;6.65;;;;;;;;;;5098875;28;24382;-60
2021/10/18 01:54:06;;;;;;;8.00;7.30;;;;;;;;;;5100534;28;24471;-60
2021/10/18 01:56:33;;;;;;;6.78;6.28;;;;;;;;;;5104186;28;24517;-60
2021/10/18 01:58:58;;;;;;;6.95;6.35;;;;;;;;;;5103945;28;24393;-60
2021/10/18 02:01:24;;;;;;;7.07;6.45;;;;;;;;;;5096699;28;24519;-60
2021/10/18 02:03:49;;;;;;;7.47;6.77;;;;;;;;;;5085706;28;24440;-60
2021/10/18 02:06:14;;;;;;;6.82;6.22;;;;;;;;;;5080848;28;24517;-60
2021/10/18 02:08:39;;;;;;;6.80;6.10;;;;;;;;;;5081928;28;24398;-60
2021/10/18 02:11:05;;;;;;;7.38;6.68;;;;;;;;;;5085960;28;24540;-60
2021/10/18 02:13:30;;;;;;;6.90;6.20;;;;;;;;;;5087678;28;24531;-60
2021/10/18 02:15:56;;;;;;;7.50;6.80;;;;;;;;;;5087278;28;24432;-60
2021/10/18 02:18:21;;;;;;;7.37;6.77;;;;;;;;;;5083908;28;24996;-60
2021/10/18 02:20:46;;;;;;;7.07;6.47;;;;;;;;;;5084044;28;24856;-60
2021/10/18 02:23:11;;;;;;;7.60;6.90;;;;;;;;;;5081661;28;24398;-60
2021/10/18 02:25:36;;;;;;;7.05;6.35;;;;;;;;;;5086032;28;24811;-60
2021/10/18 02:28:01;;;;;;;6.87;6.27;;;;;;;;;;5085412;28;24998;-60
2021/10/18 02:30:27;;;;;;;6.83;6.20;;;;;;;;;;5087269;28;24418;-60
2021/10/18 02:32:52;;;;;;;7.45;6.75;;;;;;;;;;5087298;28;24405;-60
2021/10/18 02:35:17;;;;;;;6.78;6.18;;;;;;;;;;5081932;28;24480;-60
2021/10/18 02:37:42;;;;;;;7.20;6.60;;;;;;;;;;5081480;28;24970;-60
2021/10/18 02:40:08;;;;;;;7.30;6.60;;;;;;;;;;5084738;28;24402;-60
2021/10/18 02:42:33;;;;;;;7.30;6.60;;;;;;;;;;5085994;28;24402;-60
2021/10/18 02:44:58;;;;;;;7.25;6.65;;;;;;;;;;5084575;28;24514;-60
2021/10/18 02:47:23;;;;;;;6.88;6.28;;;;;;;;;;5084917;28;24474;-59
2021/10/18 02:49:48;;;;;;;7.18;6.57;;;;;;;;;;5083161;28;24936;-60
2021/10/18 02:52:13;;;;;;;7.30;6.60;;;;;;;;;;5081197;28;24414;-60
2021/10/18 02:54:39;;;;;;;7.15;6.45;;;;;;;;;;5083342;28;24485;-60
2021/10/18 02:57:04;;;;;;;7.80;7.10;;;;;;;;;;5086409;28;24465;-60
2021/10/18 02:59:29;;;;;;;7.70;7.00;;;;;;;;;;5086398;28;24447;-60
2021/10/18 03:01:54;;;;;;;7.27;6.57;;;;;;;;;;5102232;28;24401;-60
2021/10/18 03:04:19;;;;;;;7.10;6.40;;;;;;;;;;5101266;28;24392;-60
2021/10/18 03:06:44;;;;;;;6.97;6.37;;;;;;;;;;5101704;28;24394;-60
2021/10/18 03:09:10;;;;;;;7.60;6.90;;;;;;;;;;5102812;28;24413;-60
2021/10/18 03:11:35;;;;;;;7.00;6.40;;;;;;;;;;5105979;28;24388;-60
2021/10/18 03:14:00;;;;;;;7.60;6.90;;;;;;;;;;5104382;28;24938;-60
2021/10/18 03:16:25;;;;;;;7.10;6.40;;;;;;;;;;5106734;28;24443;-60
2021/10/18 03:18:50;;;;;;;7.20;6.60;;;;;;;;;;5103157;28;24397;-60
2021/10/18 03:21:15;;;;;;;7.05;6.35;;;;;;;;;;5100804;28;24745;-60
2021/10/18 03:23:41;;;;;;;7.30;6.60;;;;;;;;;;5101242;28;24489;-60
2021/10/18 03:26:06;;;;;;;7.70;7.00;;;;;;;;;;5106649;28;24462;-60
2021/10/18 03:28:31;;;;;;;6.67;6.07;;;;;;;;;;5106181;28;24393;-60
2021/10/18 03:30:57;;;;;;;6.55;6.05;;;;;;;;;;5104363;28;24422;-62
2021/10/18 03:33:22;;;;;;;7.35;6.68;;;;;;;;;;5103063;28;24386;-60
2021/10/18 03:35:49;;;;;;;6.77;6.10;;;;;;;;;;5102999;28;24424;-60
2021/10/18 03:38:14;;;;;;;6.23;5.73;;;;;;;;;;5100404;27;24386;-60
2021/10/18 03:40:39;;;;;;;7.18;6.50;;;;;;;;;;5104613;28;24489;-60
2021/10/18 03:43:04;;;;;;;7.30;6.70;;;;;;;;;;5105445;28;24408;-60
2021/10/18 03:45:29;;;;;;;7.40;6.80;;;;;;;;;;5106530;28;24892;-60
2021/10/18 03:47:54;;;;;;;8.00;7.20;;;;;;;;;;5104295;28;24421;-60
2021/10/18 03:50:20;;;;;;;7.65;6.95;;;;;;;;;;5100571;28;24421;-60
2021/10/18 03:52:45;;;;;;;7.07;6.40;;;;;;;;;;5100633;28;24443;-60
2021/10/18 03:55:10;;;;;;;7.10;6.50;;;;;;;;;;5104274;28;24406;-60
2021/10/18 03:57:35;;;;;;;7.00;6.40;;;;;;;;;;5105658;28;24463;-60
2021/10/18 04:00:00;;;;;;;6.40;5.80;;;;;;;;;;5103270;27;24398;-60
2021/10/18 04:02:26;;;;;;;6.97;6.37;;;;;;;;;;5085597;28;24442;-60
2021/10/18 04:04:52;;;;;;;6.32;5.80;;;;;;;;;;5081417;28;24444;-60
2021/10/18 04:07:17;;;;;;;6.72;6.22;;;;;;;;;;5079770;28;24475;-60
2021/10/18 04:09:45;;;;;;;7.10;6.00;;;;;;;;;;5079778;28;24489;-60
2021/10/18 04:12:10;;;;;;;6.63;6.00;;;;;;;;;;5085306;28;24447;-60
2021/10/18 04:14:35;;;;;;;6.95;6.35;;;;;;;;;;5085172;28;24402;-60
2021/10/18 04:17:00;;;;;;;7.30;6.60;;;;;;;;;;5083366;28;24497;-60
2021/10/18 04:19:25;;;;;;;6.80;6.20;;;;;;;;;;5081197;28;24382;-60
2021/10/18 04:21:51;;;;;;;6.70;6.10;;;;;;;;;;5080771;28;24467;-60
2021/10/18 04:24:16;;;;;;;6.80;6.20;;;;;;;;;;5079451;28;24414;-60
2021/10/18 04:26:41;;;;;;;6.88;6.28;;;;;;;;;;5083301;28;24386;-60
2021/10/18 04:29:06;;;;;;;7.07;6.47;;;;;;;;;;5084275;28;24977;-60
2021/10/18 04:31:32;;;;;;;7.97;7.27;;;;;;;;;;5084701;28;24425;-61
2021/10/18 04:33:57;;;;;;;7.05;6.35;;;;;;;;;;5082664;28;24963;-61
2021/10/18 04:36:23;;;;;;;7.00;6.40;;;;;;;;;;5079530;28;24791;-61
2021/10/18 04:38:48;;;;;;;7.00;6.40;;;;;;;;;;5079325;28;24397;-60
2021/10/18 04:41:13;;;;;;;7.35;6.65;;;;;;;;;;5082589;28;24402;-61
2021/10/18 04:43:38;;;;;;;6.70;6.10;;;;;;;;;;5083828;28;24439;-61
2021/10/18 04:46:03;;;;;;;6.90;6.30;;;;;;;;;;5082846;28;24560;-60
2021/10/18 04:48:28;;;;;;;6.88;6.28;;;;;;;;;;5082655;28;24403;-60
2021/10/18 04:50:53;;;;;;;7.22;6.40;;;;;;;;;;5080978;28;24398;-60
2021/10/18 04:53:19;;;;;;;7.00;6.30;;;;;;;;;;5078889;28;24983;-60
2021/10/18 04:55:44;;;;;;;6.70;6.20;;;;;;;;;;5080862;28;24947;-60
2021/10/18 04:58:09;;;;;;;6.82;6.22;;;;;;;;;;5083991;28;24421;-60
2021/10/18 05:00:40;;;;;;;6.40;5.90;;;;;;;;;;5088764;28;24443;-60
2021/10/18 05:03:06;;;;;;;6.60;6.00;;;;;;;;;;5102729;28;24463;-60
2021/10/18 05:05:34;;;;;;;6.43;5.80;;;;;;;;;;5099249;27;24928;-60
2021/10/18 05:08:00;;;;;;;5.80;5.30;;;;;;;;;;5099049;28;24741;-60
2021/10/18 05:10:25;;;;;;;6.70;6.10;;;;;;;;;;5104398;28;24978;-60
2021/10/18 05:12:50;;;;;;;7.27;6.50;;;;;;;;;;5104458;28;25287;-60
2021/10/18 05:15:15;;;;;;;6.95;6.25;;;;;;;;;;5102306;28;24397;-60
2021/10/18 05:17:40;;;;;;;6.13;5.63;;;;;;;;;;5104605;28;24545;-60
2021/10/18 05:20:06;;;;;;;6.20;5.60;;;;;;;;;;5100517;28;24563;-60
2021/10/18 05:22:31;;;;;;;6.13;5.63;;;;;;;;;;5098986;28;25033;-61
2021/10/18 05:24:56;;;;;;;7.00;6.30;;;;;;;;;;5100767;28;25030;-60
2021/10/18 05:27:21;;;;;;;7.15;6.00;;;;;;;;;;5104044;28;24409;-59
2021/10/18 05:29:46;;;;;;;6.88;6.18;;;;;;;;;;5104022;28;24440;-60
2021/10/18 05:32:11;;;;;;;7.10;6.40;;;;;;;;;;5102401;28;24943;-60
2021/10/18 05:34:36;;;;;;;7.00;6.40;;;;;;;;;;5104061;28;24397;-61
2021/10/18 05:37:02;;;;;;;6.35;5.75;;;;;;;;;;5098889;28;24420;-60
2021/10/18 05:39:27;;;;;;;6.20;5.60;;;;;;;;;;5098301;28;24413;-60
2021/10/18 05:41:52;;;;;;;6.40;5.80;;;;;;;;;;5102390;28;24420;-61
2021/10/18 05:44:17;;;;;;;6.85;6.25;;;;;;;;;;5102376;28;24393;-60
2021/10/18 05:46:42;;;;;;;6.40;5.80;;;;;;;;;;5104359;28;24448;-60
2021/10/18 05:49:07;;;;;;;6.63;6.03;;;;;;;;;;5101936;28;24958;-60
2021/10/18 05:51:32;;;;;;;6.90;6.30;;;;;;;;;;5098851;28;24405;-60
2021/10/18 05:53:59;;;;;;;6.40;5.90;;;;;;;;;;5100486;28;24435;-60
2021/10/18 05:56:24;;;;;;;7.00;6.40;;;;;;;;;;5100276;28;24505;-60
2021/10/18 05:58:49;;;;;;;7.00;6.40;;;;;;;;;;5102147;28;24535;-60
2021/10/18 06:01:14;;;;;;;6.60;6.00;;;;;;;;;;5092054;28;24399;-60
2021/10/18 06:03:41;;;;;;;6.47;5.87;;;;;;;;;;5083821;28;24564;-60
2021/10/18 06:06:08;;;;;;;7.30;5.90;;;;;;;;;;5078360;28;24459;-60
2021/10/18 06:08:34;;;;;;;6.38;5.78;;;;;;;;;;5077917;28;24398;-60
2021/10/18 06:10:59;;;;;;;6.70;6.10;;;;;;;;;;5081793;28;25435;-60
2021/10/18 06:13:24;;;;;;;6.70;6.00;;;;;;;;;;5083686;28;24398;-60
2021/10/18 06:15:49;;;;;;;7.10;6.40;;;;;;;;;;5083912;28;25007;-60
2021/10/18 06:18:16;;;;;;;7.10;6.40;;;;;;;;;;5081553;28;24491;-60
2021/10/18 06:20:42;;;;;;;7.15;6.45;;;;;;;;;;5077639;28;24397;-61
2021/10/18 06:23:07;;;;;;;6.70;6.10;;;;;;;;;;5078017;28;24776;-60
2021/10/18 06:25:33;;;;;;;8.30;6.97;;;;;;;;;;5081721;28;24920;-60
2021/10/18 06:27:58;;;;;;;7.10;6.50;;;;;;;;;;5081225;28;24821;-61
2021/10/18 06:30:24;;;;;;;7.47;6.80;;;;;;;;;;5082980;28;24471;-61
2021/10/18 06:32:49;;;;;;;7.00;6.30;;;;;;;;;;5083433;28;24397;-60
2021/10/18 06:35:14;;;;;;;7.70;7.00;;;;;;;;;;5079686;28;24413;-60
2021/10/18 06:37:39;;;;;;;6.90;6.30;;;;;;;;;;5077917;28;24931;-59
2021/10/18 06:40:04;;;;;;;8.18;7.30;;;;;;;;;;5079207;28;24433;-58
2021/10/18 06:42:30;;;;;;;7.67;6.97;;;;;;;;;;5083143;28;24441;-59
2021/10/18 06:44:55;;;;;;;7.50;6.80;;;;;;;;;;5082600;28;25209;-60
2021/10/18 06:47:20;;;;;;;7.70;7.00;;;;;;;;;;5084981;28;24391;-60
2021/10/18 06:49:45;;;;;;;8.07;7.27;;;;;;;;;;5082991;28;24493;-60
2021/10/18 06:52:10;;;;;;;7.73;7.03;;;;;;;;;;5081142;28;24390;-60
2021/10/18 06:54:38;;;;;;;7.77;7.07;;;;;;;;;;5082848;28;24406;-60
2021/10/18 06:57:04;;;;;;;7.60;6.90;;;;;;;;;;5086616;28;24516;-60
2021/10/18 06:59:31;;;;;;;7.70;7.00;;;;;;;;;;5086524;28;24485;-59
2021/10/18 07:01:56;;;;;;;7.90;7.10;;;;;;;;;;5102146;28;24402;-60
2021/10/18 07:04:22;;;;;;;9.90;7.20;;;;;;;;;;5101636;27;24393;-60
2021/10/18 07:06:48;;;;;;;7.95;7.25;;;;;;;;;;5103478;28;24740;-60
2021/10/18 07:09:13;;;;;;;8.40;7.57;;;;;;;;;;5100516;28;24935;-60
2021/10/18 07:11:38;;;;;;;7.97;7.30;;;;;;;;;;5106729;28;24506;-59
2021/10/18 07:14:03;;;;;;;7.88;7.18;;;;;;;;;;5104637;27;24610;-59
2021/10/18 07:16:28;;;;;;;7.60;6.90;;;;;;;;;;5104652;28;24409;-60
2021/10/18 07:18:53;;;;;;;8.10;7.30;;;;;;;;;;5102266;28;24405;-61
2021/10/18 07:21:19;;;;;;;8.20;7.50;;;;;;;;;;5100889;28;24478;-60
2021/10/18 07:23:50;;;;;;;7.85;7.10;;;;;;;;;;5102903;27;24405;-60
2021/10/18 07:26:15;;;;;;;9.77;8.00;;;;;;;;;;5106259;28;24435;-60
2021/10/18 07:28:40;;;;;;;8.70;7.80;;;;;;;;;;5106100;28;24534;-60
2021/10/18 07:31:06;;;;;;;8.03;7.30;;;;;;;;;;5104244;28;24509;-58
2021/10/18 07:33:31;;;;;;;7.63;6.93;;;;;;;;;;5100518;28;24401;-58
2021/10/18 07:36:02;;;;;;;8.10;7.30;;;;;;;;;;5102321;28;24937;-59
2021/10/18 07:38:29;;;;;;;8.05;7.35;;;;;;;;;;5103851;28;24398;-59
2021/10/18 07:40:54;;;;;;;8.48;7.70;;;;;;;;;;5106081;28;24393;-59
2021/10/18 07:43:19;;;;;;;7.97;7.30;;;;;;;;;;5104380;28;24389;-58
2021/10/18 07:45:44;;;;;;;7.72;7.03;;;;;;;;;;5106311;28;24370;-59
2021/10/18 07:48:09;;;;;;;9.00;8.10;;;;;;;;;;5100296;28;24820;-59
2021/10/18 07:50:35;;;;;;;7.72;7.00;;;;;;;;;;5099915;28;24442;-59
2021/10/18 07:53:00;;;;;;;9.67;8.77;;;;;;;;;;5102068;28;24402;-59
2021/10/18 07:55:28;;;;;;;8.68;7.97;;;;;;;;;;5105508;28;24675;-59
2021/10/18 07:57:56;;;;;;;8.43;7.28;;;;;;;;;;5105363;28;24417;-60
2021/10/18 08:00:22;;;;;;;8.20;7.40;;;;;;;;;;5101674;28;25258;-60
2021/10/18 08:02:47;;;;;;;8.90;8.00;;;;;;;;;;5082012;28;24398;-60
2021/10/18 08:05:18;;;;;;;8.40;7.70;;;;;;;;;;5079417;28;24402;-60
2021/10/18 08:07:45;;;;;;;10.03;8.93;;;;;;;;;;5079880;28;24451;-60
2021/10/18 08:10:12;;;;;;;8.35;7.55;;;;;;;;;;5084555;28;24466;-60
2021/10/18 08:12:38;;;;;;;9.52;8.63;;;;;;;;;;5085183;28;24413;-60
2021/10/18 08:15:03;;;;;;;8.90;8.00;;;;;;;;;;5083368;28;24734;-60
2021/10/18 08:17:29;;;;;;;9.80;8.80;;;;;;;;;;5083141;28;24422;-59
2021/10/18 08:19:54;;;;;;;9.13;8.33;;;;;;;;;;5080810;28;24426;-60
2021/10/18 08:22:19;;;;;;;10.38;8.85;;;;;;;;;;5079414;28;24418;-61
2021/10/18 08:24:44;;;;;;;8.90;8.10;;;;;;;;;;5080965;28;24398;-60
2021/10/18 08:27:09;;;;;;;9.63;8.63;;;;;;;;;;5084939;28;24650;-60
2021/10/18 08:29:34;;;;;;;8.35;7.68;;;;;;;;;;5084130;28;24399;-61
2021/10/18 08:31:59;;;;;;;8.87;8.07;;;;;;;;;;5083188;28;24414;-60
2021/10/18 08:34:25;;;;;;;10.40;9.30;;;;;;;;;;5082537;28;24409;-60
2021/10/18 08:36:50;;;;;;;8.07;7.33;;;;;;;;;;5080887;28;24426;-60
2021/10/18 08:41:42;;;;;;;8.70;7.90;;;;;;;;;;5083116;28;24487;-61
2021/10/18 08:44:17;;;;;;;8.23;7.43;;;;;;;;;;5084525;28;24947;-60
2021/10/18 08:46:49;;;;;;;8.40;7.60;;;;;;;;;;5084546;28;24398;-60
2021/10/18 08:49:16;;;;;;;7.60;7.00;;;;;;;;;;5081866;28;24506;-59
2021/10/18 08:51:41;;;;;;;8.53;7.70;;;;;;;;;;5079048;28;24457;-59
2021/10/18 08:54:07;;;;;;;7.27;6.67;;;;;;;;;;5079032;28;24393;-59
2021/10/18 08:56:33;;;;;;;8.27;7.47;;;;;;;;;;5080674;28;24442;-59
2021/10/18 08:58:58;;;;;;;9.30;8.00;;;;;;;;;;5082460;28;24434;-60
2021/10/18 09:01:38;;;;;;;7.75;7.00;;;;;;;;;;5095121;28;25030;-60
2021/10/18 09:04:10;;;;;;;7.25;6.65;;;;;;;;;;5100902;28;24550;-59
2021/10/18 09:06:43;;;;;;;7.30;6.70;;;;;;;;;;5098922;28;24412;-59
2021/10/18 09:09:08;;;;;;;7.47;6.77;;;;;;;;;;5100244;28;24441;-59
2021/10/18 09:11:33;;;;;;;8.70;7.90;;;;;;;;;;5104269;28;24478;-59
2021/10/18 09:13:59;;;;;;;6.90;6.30;;;;;;;;;;5102659;28;24498;-59
2021/10/18 09:16:31;;;;;;;7.38;6.68;;;;;;;;;;5104083;28;24833;-60
2021/10/18 09:19:09;;;;;;;9.20;8.30;;;;;;;;;;5102388;28;24381;-59
2021/10/18 09:21:41;;;;;;;7.60;6.90;;;;;;;;;;5098293;28;25000;-59
2021/10/18 09:24:08;;;;;;;8.02;7.32;;;;;;;;;;5100170;28;25062;-60
2021/10/18 09:26:33;;;;;;;7.73;7.03;;;;;;;;;;5104047;28;24382;-60
2021/10/18 09:29:15;;;;;;;7.30;6.60;;;;;;;;;;5102224;28;24411;-60
2021/10/18 09:31:41;;;;;;;9.00;8.13;;;;;;;;;;5103947;28;24423;-60
2021/10/18 09:34:11;;;;;;;7.90;7.30;;;;;;;;;;5098732;28;24420;-59
2021/10/18 09:36:36;;;;;;;8.40;7.60;;;;;;;;;;5098541;28;24422;-59
2021/10/18 09:39:15;;;;;;;6.60;6.00;;;;;;;;;;5100459;28;24393;-60
2021/10/18 09:42:04;;;;;;;7.50;6.90;;;;;;;;;;5104026;28;24393;-60
2021/10/18 09:44:52;;;;;;;7.30;6.60;;;;;;;;;;5095907;28;24418;-61
2021/10/18 10:51:59;;;;;;;6.10;5.60;;;;;;;;;;5081074;28;24526;-60
2021/10/18 10:54:37;;;;;;;6.28;5.78;;;;;;;;;;5083043;28;24394;-60
2021/10/18 10:57:10;;;;;;;7.70;7.00;;;;;;;;;;5086610;28;24512;-60
2021/10/18 10:59:35;;;;;;;8.20;7.40;;;;;;;;;;5091200;28;24417;-60
2021/10/18 11:02:02;;;;;;;6.77;6.17;;;;;;;;;;5105009;28;24394;-59
2021/10/18 11:04:30;;;;;;;9.40;8.50;;;;;;;;;;5103020;28;24535;-60
2021/10/18 11:07:05;;;;;;;8.13;7.43;;;;;;;;;;5103289;28;24462;-59
2021/10/18 11:09:43;;;;;;;8.55;7.75;;;;;;;;;;5104751;28;24400;-60
2021/10/18 11:12:17;;;;;;;8.10;7.40;;;;;;;;;;5106480;28;24961;-60
2021/10/18 11:14:43;;;;;;;7.45;6.75;;;;;;;;;;5107117;28;24386;-60
2021/10/18 11:17:08;;;;;;;8.70;7.90;;;;;;;;;;5104801;28;24420;-60
2021/10/18 11:19:33;;;;;;;5.40;4.90;;;;;;;;;;5102276;28;24752;-61
2021/10/18 11:22:00;;;;;;;5.63;5.13;;;;;;;;;;5102608;28;24499;-60
2021/10/18 11:24:39;;;;;;;4.13;3.83;;;;;;;;;;5103028;28;24450;-60
2021/10/18 11:27:04;;;;;;;4.53;4.13;;;;;;;;;;5106729;28;24580;-60
2021/10/18 11:29:30;;;;;;;4.40;4.00;;;;;;;;;;5106189;28;24504;-60
2021/10/18 11:32:03;;;;;;;4.15;3.75;;;;;;;;;;5105745;28;24417;-60
2021/10/18 11:34:28;;;;;;;4.63;4.20;;;;;;;;;;5100468;28;24562;-60
2021/10/18 11:36:54;;;;;;;4.20;3.80;;;;;;;;;;5086829;28;24529;-60
2021/10/18 11:39:21;;;;;;;4.30;3.90;;;;;;;;;;5075254;28;24413;-60
2021/10/18 11:41:58;;;;;;;3.70;3.40;;;;;;;;;;5085856;28;25013;-60
2021/10/18 11:44:42;;;;;;;4.47;3.80;;;;;;;;;;5086000;28;24493;-60
2021/10/18 11:47:19;;;;;;;3.50;3.20;;;;;;;;;;5084059;28;24390;-60
2021/10/18 11:50:02;;;;;;;3.65;3.35;;;;;;;;;;5082247;28;24429;-60
2021/10/18 11:52:27;;;;;;;3.60;3.30;;;;;;;;;;5080002;28;24410;-60
2021/10/18 11:54:53;;;;;;;3.93;3.63;;;;;;;;;;5083838;28;24395;-62
2021/10/18 11:57:18;;;;;;;3.05;2.85;;;;;;;;;;5085480;28;25201;-60
2021/10/18 11:59:43;;;;;;;3.37;3.10;;;;;;;;;;5101339;28;24402;-60
2021/10/18 12:02:21;;;;;;;2.80;2.60;;;;;;;;;;5103892;28;24446;-60
2021/10/18 12:04:59;;;;;;;2.97;2.67;;;;;;;;;;5103366;28;24458;-58
2021/10/18 12:07:44;;;;;;;2.20;2.00;;;;;;;;;;5101634;28;25030;-62
2021/10/18 12:10:17;;;;;;;2.53;2.33;;;;;;;;;;5101585;28;24414;-59
2021/10/18 12:13:00;;;;;;;2.20;2.00;;;;;;;;;;5105589;28;24386;-58
2021/10/18 12:15:25;;;;;;;1.70;1.60;;;;;;;;;;5105444;28;24405;-59
2021/10/18 12:17:51;;;;;;;1.60;1.50;;;;;;;;;;5105289;28;24547;-59
2021/10/18 12:20:16;;;;;;;1.85;1.42;;;;;;;;;;5103031;28;25452;-59
2021/10/18 12:23:01;;;;;;;2.20;1.60;;;;;;;;;;5099987;28;24492;-58
2021/10/18 12:25:27;;;;;;;2.00;1.80;;;;;;;;;;5067861;28;24448;-58
2021/10/18 12:27:53;;;;;;;2.20;2.00;;;;;;;;;;5101108;28;24548;-59
2021/10/18 12:30:37;;;;;;;1.95;1.85;;;;;;;;;;5104753;28;24768;-59
2021/10/18 12:33:09;;;;;;;2.50;2.30;;;;;;;;;;5103334;28;24436;-58
2021/10/18 12:35:34;;;;;;;2.80;2.60;;;;;;;;;;5101007;28;24940;-59
2021/10/18 12:38:07;;;;;;;2.97;2.53;;;;;;;;;;5099186;28;24421;-59
2021/10/18 12:40:32;;;;;;;2.45;2.10;;;;;;;;;;5104080;28;24470;-58
2021/10/18 12:42:59;;;;;;;2.78;2.58;;;;;;;;;;5100437;28;24444;-59
2021/10/18 12:45:24;;;;;;;2.60;2.40;;;;;;;;;;5104935;28;24717;-59
2021/10/18 12:47:51;;;;;;;1.90;1.80;;;;;;;;;;5104649;28;24425;-59
2021/10/18 12:50:19;;;;;;;2.40;2.20;;;;;;;;;;5102745;28;25243;-59
2021/10/18 12:52:50;;;;;;;2.30;2.10;;;;;;;;;;5099763;28;24485;-59
2021/10/18 12:55:23;;;;;;;2.40;2.20;;;;;;;;;;5098699;28;24401;-59
2021/10/18 12:57:49;;;;;;;2.40;2.20;;;;;;;;;;5100634;28;25184;-59
2021/10/18 13:00:20;;;;;;;2.25;2.00;;;;;;;;;;5084374;28;24406;-59
2021/10/18 13:02:48;;;;;;;3.00;2.30;;;;;;;;;;5084044;28;24433;-59
2021/10/18 13:05:17;;;;;;;2.53;1.80;;;;;;;;;;5082191;28;24467;-59
2021/10/18 13:07:43;;;;;;;2.00;1.80;;;;;;;;;;5078572;28;24386;-59
2021/10/18 13:10:09;;;;;;;3.00;2.10;;;;;;;;;;5078648;28;24405;-59
2021/10/18 13:12:35;;;;;;;2.50;2.30;;;;;;;;;;5082212;28;24776;-59
2021/10/18 13:15:00;;;;;;;3.00;1.90;;;;;;;;;;5081752;28;24966;-60
2021/10/18 13:17:26;;;;;;;2.40;2.20;;;;;;;;;;5084221;28;24421;-59
2021/10/18 13:19:51;;;;;;;2.57;2.37;;;;;;;;;;5083737;28;24932;-59
2021/10/18 13:22:16;;;;;;;2.50;2.30;;;;;;;;;;5079850;28;24955;-60
2021/10/18 13:24:42;;;;;;;2.30;2.10;;;;;;;;;;5078473;28;24398;-60
2021/10/18 13:27:07;;;;;;;2.03;1.83;;;;;;;;;;5080292;28;24405;-59
2021/10/18 13:29:33;;;;;;;2.45;2.25;;;;;;;;;;5081191;28;24559;-59
2021/10/18 13:31:58;;;;;;;1.80;1.70;;;;;;;;;;5081956;28;24409;-60
2021/10/18 13:34:23;;;;;;;2.13;1.93;;;;;;;;;;5083750;28;24893;-60
2021/10/18 13:36:48;;;;;;;1.90;1.70;;;;;;;;;;5081731;28;24571;-60
2021/10/18 13:39:13;;;;;;;1.70;1.60;;;;;;;;;;5076455;28;24582;-60
2021/10/18 13:41:39;;;;;;;1.80;1.70;;;;;;;;;;5080175;28;25026;-60
2021/10/18 13:44:06;;;;;;;1.90;1.80;;;;;;;;;;5082037;28;24385;-59
2021/10/18 13:46:31;;;;;;;1.90;1.52;;;;;;;;;;5083613;28;24414;-60
2021/10/18 13:48:56;;;;;;;2.20;1.60;;;;;;;;;;5083111;28;24424;-60
2021/10/18 13:51:22;;;;;;;1.90;1.70;;;;;;;;;;5078575;28;24395;-59
2021/10/18 13:53:47;;;;;;;1.80;1.57;;;;;;;;;;5077742;28;24887;-59
2021/10/18 13:56:13;;;;;;;2.10;1.90;;;;;;;;;;5085707;28;24418;-59
2021/10/18 13:58:39;;;;;;;1.60;1.50;;;;;;;;;;5094035;28;24436;-59
2021/10/18 14:01:04;;;;;;;1.45;1.35;;;;;;;;;;5105838;28;24412;-59
2021/10/18 14:03:29;;;;;;;1.65;1.55;;;;;;;;;;5105902;28;25009;-59
2021/10/18 14:05:55;;;;;;;1.90;1.80;;;;;;;;;;5104167;28;24878;-59
2021/10/18 14:08:20;;;;;;;1.77;1.67;;;;;;;;;;5101904;28;24389;-59
2021/10/18 14:10:45;;;;;;;2.03;1.83;;;;;;;;;;5105996;28;24381;-60
2021/10/18 14:13:12;;;;;;;1.85;1.75;;;;;;;;;;5107563;28;24431;-60
2021/10/18 14:15:38;;;;;;;2.00;1.90;;;;;;;;;;5107849;28;24413;-59
2021/10/18 14:18:03;;;;;;;1.50;1.40;;;;;;;;;;5105784;28;24397;-60
2021/10/18 14:20:28;;;;;;;2.40;2.00;;;;;;;;;;5101987;28;24804;-59
2021/10/18 14:22:53;;;;;;;2.25;2.05;;;;;;;;;;5103378;28;24405;-60
2021/10/18 14:25:19;;;;;;;2.40;2.17;;;;;;;;;;5105719;28;24406;-59
2021/10/18 14:27:44;;;;;;;3.05;2.13;;;;;;;;;;5107625;28;24878;-59
2021/10/18 14:30:09;;;;;;;2.17;1.90;;;;;;;;;;5105377;28;24448;-59
2021/10/18 14:32:34;;;;;;;1.70;1.60;;;;;;;;;;5106770;28;24740;-59
2021/10/18 14:35:00;;;;;;;1.60;1.50;;;;;;;;;;5103597;28;24390;-59
2021/10/18 14:37:25;;;;;;;1.87;1.73;;;;;;;;;;5101636;28;24966;-59
2021/10/18 14:39:50;;;;;;;1.60;1.50;;;;;;;;;;5103656;27;24982;-59
2021/10/18 14:42:15;;;;;;;1.70;1.60;;;;;;;;;;5106183;28;24406;-58
2021/10/18 14:44:41;;;;;;;1.73;1.63;;;;;;;;;;5107106;28;24385;-60
2021/10/18 14:47:06;;;;;;;1.60;1.50;;;;;;;;;;5105537;28;24935;-59
2021/10/18 14:49:32;;;;;;;1.60;1.50;;;;;;;;;;5101395;28;24394;-59
2021/10/18 14:51:57;;;;;;;1.40;1.30;;;;;;;;;;5101760;28;25279;-58
2021/10/18 14:54:22;;;;;;;1.70;1.40;;;;;;;;;;5105083;28;24535;-59
2021/10/18 14:56:48;;;;;;;1.60;1.50;;;;;;;;;;5107223;28;24412;-59
2021/10/18 14:59:14;;;;;;;1.70;1.60;;;;;;;;;;5093433;28;24974;-60
2021/10/18 15:01:40;;;;;;;2.03;1.83;;;;;;;;;;5086170;28;24408;-59
2021/10/18 15:04:05;;;;;;;1.90;1.80;;;;;;;;;;5084629;28;25213;-60
2021/10/18 15:06:30;;;;;;;2.20;2.00;;;;;;;;;;5079671;28;24770;-59
2021/10/18 15:08:57;;;;;;;2.70;1.90;;;;;;;;;;5082519;28;24564;-59
2021/10/18 15:11:22;;;;;;;2.40;1.90;;;;;;;;;;5084952;28;24397;-59
2021/10/18 15:13:47;;;;;;;2.00;1.90;;;;;;;;;;5086214;28;24399;-60
2021/10/18 15:16:12;;;;;;;2.08;1.98;;;;;;;;;;5083958;28;24514;-59
2021/10/18 15:18:38;;;;;;;2.22;2.00;;;;;;;;;;5082110;28;24460;-59
2021/10/18 15:21:03;;;;;;;2.10;1.90;;;;;;;;;;5082184;28;24771;-59
2021/10/18 15:23:29;;;;;;;2.00;1.90;;;;;;;;;;5080170;28;24406;-59
2021/10/18 15:25:54;;;;;;;2.10;2.00;;;;;;;;;;5086135;28;24399;-60
2021/10/18 15:28:19;;;;;;;2.47;2.27;;;;;;;;;;5083840;28;24398;-59
2021/10/18 15:30:44;;;;;;;2.70;2.50;;;;;;;;;;5086287;28;24476;-59
2021/10/18 15:33:10;;;;;;;3.20;2.60;;;;;;;;;;5084063;28;24925;-59
2021/10/18 15:35:35;;;;;;;3.00;2.70;;;;;;;;;;5081971;28;24390;-59
2021/10/18 15:38:02;;;;;;;2.80;2.53;;;;;;;;;;5081997;28;24985;-59
2021/10/18 15:40:27;;;;;;;3.72;2.95;;;;;;;;;;5082443;28;24489;-59
2021/10/18 15:42:52;;;;;;;3.40;3.10;;;;;;;;;;5085408;28;24820;-59
2021/10/18 15:45:18;;;;;;;3.67;3.38;;;;;;;;;;5083930;28;24401;-60